Time;durP1;ratioP1;P1;durP2;ratioP2;P2;SDS_P1;SDS_P2;PMS_P1;PMS_P2;Temp;Humidity;BMP_temperature;BMP_pressure;BME280_temperature;BME280_humidity;BME280_pressure;Samples;Min_cycle;Max_cycle;Signal;HPM_P1;HPM_P2
2023/02/05 00:01:27;;;;;;;31.17;13.30;;;;;;;;;;4995795;28;20529;-63
2023/02/05 00:03:53;;;;;;;28.52;13.48;;;;;;;;;;5005699;28;20521;-62
2023/02/05 00:06:18;;;;;;;38.22;16.77;;;;;;;;;;4998584;28;20034;-62
2023/02/05 00:08:43;;;;;;;30.00;14.45;;;;;;;;;;4995835;28;20510;-62
2023/02/05 00:11:09;;;;;;;30.05;14.05;;;;;;;;;;4999816;28;20029;-62
2023/02/05 00:13:39;;;;;;;31.88;16.30;;;;;;;;;;4999200;28;20029;-63
2023/02/05 00:16:12;;;;;;;30.52;15.05;;;;;;;;;;5007878;28;20592;-62
2023/02/05 00:18:38;;;;;;;29.13;15.38;;;;;;;;;;4999943;28;20034;-63
2023/02/05 00:21:04;;;;;;;31.15;15.68;;;;;;;;;;5005175;28;20037;-61
2023/02/05 00:23:29;;;;;;;27.08;15.35;;;;;;;;;;5004367;28;20040;-61
2023/02/05 00:25:55;;;;;;;30.85;15.85;;;;;;;;;;5001199;28;20565;-61
2023/02/05 00:28:20;;;;;;;31.73;16.05;;;;;;;;;;5005977;28;20037;-61
2023/02/05 00:30:46;;;;;;;28.35;14.63;;;;;;;;;;4988893;28;20044;-61
2023/02/05 00:33:11;;;;;;;29.10;14.85;;;;;;;;;;5000827;28;20207;-62
2023/02/05 00:35:37;;;;;;;32.63;15.85;;;;;;;;;;4999342;28;20025;-61
2023/02/05 00:38:02;;;;;;;30.35;15.40;;;;;;;;;;5002180;28;20117;-61
2023/02/05 00:40:28;;;;;;;26.85;13.60;;;;;;;;;;5006252;28;20025;-62
2023/02/05 00:42:53;;;;;;;25.17;13.02;;;;;;;;;;5003721;28;20029;-61
2023/02/05 00:45:20;;;;;;;27.75;14.68;;;;;;;;;;5006389;28;20045;-61
2023/02/05 00:47:45;;;;;;;25.80;13.43;;;;;;;;;;5011218;28;20026;-61
2023/02/05 00:50:10;;;;;;;26.25;14.02;;;;;;;;;;5004750;28;20034;-61
2023/02/05 00:52:36;;;;;;;22.52;11.55;;;;;;;;;;5009254;28;20037;-61
2023/02/05 00:55:02;;;;;;;20.75;10.70;;;;;;;;;;5003706;28;20045;-61
2023/02/05 00:57:27;;;;;;;26.60;11.63;;;;;;;;;;5006495;28;20111;-62
2023/02/05 00:59:53;;;;;;;20.67;11.85;;;;;;;;;;4998136;28;20038;-61
2023/02/05 01:02:23;;;;;;;27.45;15.02;;;;;;;;;;4999009;28;20095;-61
2023/02/05 01:04:50;;;;;;;29.05;15.70;;;;;;;;;;5008806;28;20030;-61
2023/02/05 01:07:15;;;;;;;35.05;16.05;;;;;;;;;;4996927;28;20940;-61
2023/02/05 01:09:41;;;;;;;29.67;16.02;;;;;;;;;;4999712;28;20805;-61
2023/02/05 01:12:06;;;;;;;23.77;14.48;;;;;;;;;;5004825;28;20111;-61
2023/02/05 01:14:31;;;;;;;27.15;14.43;;;;;;;;;;4996240;28;20036;-62
2023/02/05 01:16:57;;;;;;;21.50;12.15;;;;;;;;;;4992941;28;20476;-62
2023/02/05 01:19:22;;;;;;;25.42;12.88;;;;;;;;;;4983453;28;20056;-62
2023/02/05 01:21:47;;;;;;;20.70;11.30;;;;;;;;;;5001737;28;20026;-62
2023/02/05 01:24:13;;;;;;;23.30;11.80;;;;;;;;;;5006264;28;20488;-62
2023/02/05 01:26:38;;;;;;;20.35;11.27;;;;;;;;;;5009981;28;20057;-61
2023/02/05 01:29:03;;;;;;;24.75;10.48;;;;;;;;;;4998013;28;20064;-61
2023/02/05 01:31:29;;;;;;;20.58;10.52;;;;;;;;;;4991217;28;20469;-61
2023/02/05 01:33:54;;;;;;;22.38;11.43;;;;;;;;;;4998299;28;20092;-61
2023/02/05 01:36:20;;;;;;;23.48;12.55;;;;;;;;;;5002573;28;20108;-62
2023/02/05 01:38:45;;;;;;;21.10;10.23;;;;;;;;;;4996312;28;20850;-62
2023/02/05 01:41:12;;;;;;;26.65;11.38;;;;;;;;;;5000217;28;20474;-62
2023/02/05 01:43:37;;;;;;;27.92;11.43;;;;;;;;;;4993829;28;20053;-61
2023/02/05 01:46:38;;;;;;;21.95;11.52;;;;;;;;;;5000409;28;20489;-61
2023/02/05 01:49:04;;;;;;;25.95;12.27;;;;;;;;;;4950484;28;20117;-61
2023/02/05 01:51:30;;;;;;;23.42;11.65;;;;;;;;;;4986966;28;20177;-61
2023/02/05 01:53:56;;;;;;;24.38;11.70;;;;;;;;;;5001571;28;20513;-61
2023/02/05 01:56:23;;;;;;;20.23;10.68;;;;;;;;;;5001768;28;20037;-61
2023/02/05 01:58:52;;;;;;;20.25;10.70;;;;;;;;;;4988517;28;20371;-61
2023/02/05 02:01:17;;;;;;;21.65;10.88;;;;;;;;;;5001778;28;20049;-61
2023/02/05 02:03:43;;;;;;;20.13;10.65;;;;;;;;;;4994369;28;20390;-60
2023/02/05 02:06:08;;;;;;;21.48;11.30;;;;;;;;;;4999068;28;20109;-60
2023/02/05 02:08:33;;;;;;;18.17;10.18;;;;;;;;;;5004630;28;20422;-61
2023/02/05 02:11:00;;;;;;;17.30;9.77;;;;;;;;;;4998658;28;20041;-61
2023/02/05 02:13:26;;;;;;;16.23;9.27;;;;;;;;;;5003057;28;20057;-61
2023/02/05 02:15:52;;;;;;;16.80;9.02;;;;;;;;;;4998107;28;20046;-63
2023/02/05 02:18:27;;;;;;;14.75;8.70;;;;;;;;;;4996045;28;20022;-63
2023/02/05 02:20:55;;;;;;;17.58;9.88;;;;;;;;;;4999575;28;20052;-63
2023/02/05 02:23:36;;;;;;;19.38;9.52;;;;;;;;;;4993948;28;20816;-62
2023/02/05 02:26:13;;;;;;;24.65;9.45;;;;;;;;;;5001102;28;20136;-62
2023/02/05 02:28:46;;;;;;;21.00;10.20;;;;;;;;;;5000447;28;20044;-62
2023/02/05 02:31:21;;;;;;;18.48;9.63;;;;;;;;;;4986424;28;20149;-61
2023/02/05 02:33:53;;;;;;;17.50;9.38;;;;;;;;;;4999754;28;20037;-61
2023/02/05 02:36:21;;;;;;;18.20;9.88;;;;;;;;;;5010213;28;20038;-61
2023/02/05 02:38:52;;;;;;;20.20;10.10;;;;;;;;;;5006537;28;20021;-61
2023/02/05 02:41:20;;;;;;;24.10;11.20;;;;;;;;;;5000428;28;20026;-61
2023/02/05 02:43:52;;;;;;;17.35;10.80;;;;;;;;;;5000419;28;20237;-62
2023/02/05 02:46:20;;;;;;;20.35;10.95;;;;;;;;;;5023316;28;20066;-61
2023/02/05 02:48:47;;;;;;;20.98;11.10;;;;;;;;;;4992316;28;20022;-61
2023/02/05 02:51:14;;;;;;;20.87;10.57;;;;;;;;;;5002780;28;20104;-61
2023/02/05 02:53:41;;;;;;;19.60;10.07;;;;;;;;;;4993979;28;20034;-62
2023/02/05 02:56:08;;;;;;;16.88;10.00;;;;;;;;;;5010899;28;20050;-62
2023/02/05 02:58:38;;;;;;;18.60;9.88;;;;;;;;;;5002957;28;20437;-62
2023/02/05 03:01:05;;;;;;;23.05;10.52;;;;;;;;;;5011608;28;20041;-63
2023/02/05 03:03:33;;;;;;;22.63;11.10;;;;;;;;;;4992503;28;20038;-61
2023/02/05 03:05:59;;;;;;;21.65;9.90;;;;;;;;;;5003925;28;20283;-61
2023/02/05 03:09:00;;;;;;;19.37;10.40;;;;;;;;;;5008743;28;20419;-62
2023/02/05 03:11:26;;;;;;;19.42;10.32;;;;;;;;;;4925377;28;20317;-61
2023/02/05 03:13:53;;;;;;;20.17;10.40;;;;;;;;;;4981975;28;20173;-61
2023/02/05 03:16:23;;;;;;;21.52;9.98;;;;;;;;;;4994447;28;20061;-61
2023/02/05 03:18:49;;;;;;;21.60;10.30;;;;;;;;;;4994630;28;20060;-61
2023/02/05 03:21:24;;;;;;;17.27;8.98;;;;;;;;;;5001801;28;20029;-61
2023/02/05 03:23:49;;;;;;;17.35;9.63;;;;;;;;;;5000030;28;20029;-63
2023/02/05 03:26:37;;;;;;;18.83;9.85;;;;;;;;;;5007228;28;20461;-61
2023/02/05 03:29:13;;;;;;;16.63;9.55;;;;;;;;;;5007586;28;20041;-62
2023/02/05 03:31:45;;;;;;;21.10;10.45;;;;;;;;;;5000612;28;20025;-62
2023/02/05 03:34:13;;;;;;;20.33;10.60;;;;;;;;;;5008775;28;20029;-63
2023/02/05 03:36:47;;;;;;;22.42;10.60;;;;;;;;;;4999125;28;20030;-61
2023/02/05 03:39:22;;;;;;;22.95;10.75;;;;;;;;;;5015053;28;20033;-61
2023/02/05 03:41:57;;;;;;;18.10;9.95;;;;;;;;;;5011230;28;20029;-60
2023/02/05 03:44:32;;;;;;;22.73;11.00;;;;;;;;;;5003063;28;20034;-62
2023/02/05 03:47:02;;;;;;;20.00;9.77;;;;;;;;;;5003091;28;20608;-61
2023/02/05 03:49:27;;;;;;;17.30;10.13;;;;;;;;;;5021535;28;20095;-61
2023/02/05 03:51:59;;;;;;;19.20;10.85;;;;;;;;;;5000853;28;20033;-61
2023/02/05 03:54:27;;;;;;;19.05;10.30;;;;;;;;;;4999894;28;20146;-61
2023/02/05 03:56:59;;;;;;;20.80;10.30;;;;;;;;;;4994883;28;20030;-61
2023/02/05 03:59:26;;;;;;;17.55;10.00;;;;;;;;;;5002791;28;20042;-61
2023/02/05 04:01:52;;;;;;;16.45;9.68;;;;;;;;;;5005349;28;20033;-62
2023/02/05 04:04:18;;;;;;;21.48;10.15;;;;;;;;;;4997583;28;20030;-61
2023/02/05 04:06:45;;;;;;;17.95;10.63;;;;;;;;;;5001711;28;20220;-61
2023/02/05 04:09:11;;;;;;;24.05;11.75;;;;;;;;;;4982214;28;20039;-62
2023/02/05 04:11:37;;;;;;;25.40;12.63;;;;;;;;;;5000695;28;20605;-61
2023/02/05 04:14:04;;;;;;;24.20;12.25;;;;;;;;;;5005272;28;20154;-61
2023/02/05 04:16:29;;;;;;;22.05;11.18;;;;;;;;;;4978118;28;20364;-61
2023/02/05 04:18:56;;;;;;;22.33;10.97;;;;;;;;;;5004082;28;20034;-61
2023/02/05 04:21:21;;;;;;;17.83;10.23;;;;;;;;;;4986598;28;20290;-61
2023/02/05 04:23:47;;;;;;;16.33;9.35;;;;;;;;;;5002640;28;20022;-61
2023/02/05 04:26:12;;;;;;;18.67;8.82;;;;;;;;;;5006125;28;20360;-61
2023/02/05 04:28:44;;;;;;;19.00;9.55;;;;;;;;;;4988549;28;20034;-61
2023/02/05 04:31:13;;;;;;;15.50;9.00;;;;;;;;;;5008397;28;20453;-61
2023/02/05 04:33:41;;;;;;;16.95;9.65;;;;;;;;;;5002403;28;20058;-62
2023/02/05 04:36:08;;;;;;;;;;;;;;;;;;5000366;28;20041;-61
2023/02/05 04:38:33;;;;;;;16.77;8.23;;;;;;;;;;5003638;28;19920;-63
2023/02/05 04:40:59;;;;;;;14.70;8.43;;;;;;;;;;4992982;28;20306;-60
2023/02/05 04:43:24;;;;;;;13.85;9.02;;;;;;;;;;4998213;28;20036;-60
2023/02/05 04:45:49;;;;;;;16.40;8.98;;;;;;;;;;5003773;28;20038;-61
2023/02/05 04:48:15;;;;;;;15.30;8.63;;;;;;;;;;5003308;28;20040;-61
2023/02/05 04:50:40;;;;;;;16.83;9.25;;;;;;;;;;5009605;28;20033;-61
2023/02/05 04:53:06;;;;;;;17.30;8.95;;;;;;;;;;4993737;28;20092;-61
2023/02/05 04:55:31;;;;;;;16.85;9.65;;;;;;;;;;5000019;28;20034;-61
2023/02/05 04:57:57;;;;;;;15.27;8.75;;;;;;;;;;5000769;28;20039;-61
2023/02/05 05:00:22;;;;;;;17.05;8.75;;;;;;;;;;4997699;28;20033;-60
2023/02/05 05:02:47;;;;;;;15.82;9.20;;;;;;;;;;5004449;28;20451;-60
2023/02/05 05:05:12;;;;;;;17.55;9.77;;;;;;;;;;5003502;28;20552;-61
2023/02/05 05:07:41;;;;;;;17.13;8.93;;;;;;;;;;5002840;28;20044;-61
2023/02/05 05:10:06;;;;;;;14.02;8.75;;;;;;;;;;5002618;28;20108;-60
2023/02/05 05:12:35;;;;;;;16.48;8.48;;;;;;;;;;5000103;28;20116;-60
2023/02/05 05:15:01;;;;;;;16.75;8.55;;;;;;;;;;5005062;28;20088;-60
2023/02/05 05:17:26;;;;;;;17.05;8.07;;;;;;;;;;4999080;28;20030;-60
2023/02/05 05:19:51;;;;;;;18.17;9.70;;;;;;;;;;4999257;28;20042;-60
2023/02/05 05:22:17;;;;;;;18.30;10.18;;;;;;;;;;5018580;28;20029;-60
2023/02/05 05:24:42;;;;;;;17.23;10.20;;;;;;;;;;4997609;28;20022;-61
2023/02/05 05:27:07;;;;;;;18.85;9.55;;;;;;;;;;5007467;28;20037;-61
2023/02/05 05:29:33;;;;;;;17.15;9.65;;;;;;;;;;4998493;28;20025;-61
2023/02/05 05:31:59;;;;;;;22.08;10.93;;;;;;;;;;4998828;28;20602;-61
2023/02/05 05:34:24;;;;;;;21.65;10.20;;;;;;;;;;5006269;28;20029;-61
2023/02/05 05:36:49;;;;;;;19.88;9.85;;;;;;;;;;4996404;28;20084;-62
2023/02/05 05:44:42;;;;;;;19.73;9.68;;;;;;;;;;4996142;28;20537;-61
2023/02/05 05:47:08;;;;;;;23.38;10.68;;;;;;;;;;4997635;28;20030;-61
2023/02/05 05:49:33;;;;;;;20.95;10.48;;;;;;;;;;4995404;28;20021;-61
2023/02/05 05:51:58;;;;;;;16.40;9.32;;;;;;;;;;4993186;28;20034;-61
2023/02/05 05:54:24;;;;;;;15.32;8.75;;;;;;;;;;5002462;28;20110;-61
2023/02/05 05:56:49;;;;;;;17.27;8.95;;;;;;;;;;4996219;28;20034;-61
2023/02/05 05:59:15;;;;;;;16.30;8.80;;;;;;;;;;5003054;28;20026;-62
2023/02/05 06:01:40;;;;;;;13.77;8.20;;;;;;;;;;4994434;28;20025;-61
2023/02/05 06:04:05;;;;;;;14.23;8.93;;;;;;;;;;4999612;28;20040;-60
2023/02/05 06:06:31;;;;;;;14.43;8.27;;;;;;;;;;5004791;28;20041;-61
2023/02/05 06:08:56;;;;;;;13.40;7.45;;;;;;;;;;4993734;28;20074;-61
2023/02/05 06:11:21;;;;;;;14.15;7.88;;;;;;;;;;5001922;28;20030;-61
2023/02/05 06:13:47;;;;;;;16.08;7.03;;;;;;;;;;4991700;28;20049;-61
2023/02/05 06:16:12;;;;;;;16.52;7.07;;;;;;;;;;4993915;28;20038;-62
2023/02/05 06:18:37;;;;;;;13.32;7.38;;;;;;;;;;4999798;28;20042;-62
2023/02/05 06:21:04;;;;;;;11.63;6.90;;;;;;;;;;4998834;28;20030;-61
2023/02/05 06:23:30;;;;;;;14.52;7.90;;;;;;;;;;4999775;28;20344;-62
2023/02/05 06:25:55;;;;;;;15.60;8.27;;;;;;;;;;4997500;28;20045;-61
2023/02/05 06:28:20;;;;;;;14.40;8.63;;;;;;;;;;4998743;28;20041;-61
2023/02/05 06:30:46;;;;;;;16.60;9.90;;;;;;;;;;5002796;28;20105;-62
2023/02/05 06:33:11;;;;;;;14.48;8.25;;;;;;;;;;4992096;28;20076;-60
2023/02/05 06:35:37;;;;;;;15.18;8.23;;;;;;;;;;5001286;28;20048;-60
2023/02/05 06:38:02;;;;;;;12.55;7.57;;;;;;;;;;4998358;28;20038;-61
2023/02/05 06:40:28;;;;;;;12.93;7.07;;;;;;;;;;4996922;28;20026;-61
2023/02/05 06:42:53;;;;;;;13.38;7.50;;;;;;;;;;5006016;28;20386;-62
2023/02/05 06:45:19;;;;;;;14.55;7.30;;;;;;;;;;4996540;28;20032;-61
2023/02/05 06:47:44;;;;;;;13.13;7.90;;;;;;;;;;5005321;28;20037;-62
2023/02/05 06:50:10;;;;;;;12.18;6.75;;;;;;;;;;4996960;28;20024;-61
2023/02/05 06:52:35;;;;;;;12.63;7.38;;;;;;;;;;4996661;28;20470;-62
2023/02/05 06:55:00;;;;;;;12.18;7.63;;;;;;;;;;5003090;28;20041;-62
2023/02/05 06:57:25;;;;;;;16.20;7.47;;;;;;;;;;4992653;28;20034;-62
2023/02/05 06:59:51;;;;;;;12.57;7.13;;;;;;;;;;5000520;28;20036;-61
2023/02/05 07:02:16;;;;;;;10.40;7.13;;;;;;;;;;4997565;28;20414;-62
2023/02/05 07:04:41;;;;;;;18.13;8.00;;;;;;;;;;4995269;28;20033;-61
2023/02/05 07:07:07;;;;;;;12.00;8.52;;;;;;;;;;5003345;28;20037;-62
2023/02/05 07:09:32;;;;;;;14.70;8.15;;;;;;;;;;4999739;28;20414;-61
2023/02/05 07:11:57;;;;;;;13.02;7.97;;;;;;;;;;5005335;28;20525;-61
2023/02/05 07:14:23;;;;;;;12.35;7.93;;;;;;;;;;4998473;28;20476;-63
2023/02/05 07:16:49;;;;;;;15.05;8.70;;;;;;;;;;4996627;28;20455;-61
2023/02/05 07:19:15;;;;;;;12.85;8.43;;;;;;;;;;5002380;28;20639;-62
2023/02/05 07:21:40;;;;;;;14.65;8.43;;;;;;;;;;4995345;28;20030;-62
2023/02/05 07:24:05;;;;;;;17.45;8.35;;;;;;;;;;5000663;28;20029;-61
2023/02/05 07:26:30;;;;;;;15.85;9.27;;;;;;;;;;4997456;28;20036;-61
2023/02/05 07:28:56;;;;;;;17.08;9.73;;;;;;;;;;4992759;28;20501;-61
2023/02/05 07:31:21;;;;;;;15.35;8.45;;;;;;;;;;5006283;28;20065;-62
2023/02/05 07:33:46;;;;;;;17.75;9.05;;;;;;;;;;4998947;28;20065;-62
2023/02/05 07:36:15;;;;;;;15.88;8.65;;;;;;;;;;5000436;28;20372;-62
2023/02/05 07:38:40;;;;;;;14.63;7.68;;;;;;;;;;4998344;28;20497;-62
2023/02/05 07:41:07;;;;;;;19.52;11.02;;;;;;;;;;4995182;28;20030;-62
2023/02/05 07:43:32;;;;;;;20.50;10.38;;;;;;;;;;5007418;28;20547;-61
2023/02/05 07:45:59;;;;;;;21.95;13.32;;;;;;;;;;5000775;28;20434;-61
2023/02/05 07:48:24;;;;;;;38.83;20.50;;;;;;;;;;4998790;28;20116;-62
2023/02/05 07:50:51;;;;;;;19.83;11.45;;;;;;;;;;5002157;28;20048;-61
2023/02/05 07:53:16;;;;;;;15.67;7.27;;;;;;;;;;4997631;28;20949;-61
2023/02/05 07:55:41;;;;;;;12.05;6.18;;;;;;;;;;5007560;28;20029;-61
2023/02/05 07:58:07;;;;;;;13.10;7.20;;;;;;;;;;5000482;28;20539;-62
2023/02/05 08:00:32;;;;;;;12.45;6.97;;;;;;;;;;5006957;28;20037;-61
2023/02/05 08:02:57;;;;;;;12.95;8.05;;;;;;;;;;4996137;28;20491;-61
2023/02/05 08:05:23;;;;;;;20.60;9.18;;;;;;;;;;4998863;28;20021;-61
2023/02/05 08:07:48;;;;;;;15.35;8.82;;;;;;;;;;5000879;28;20183;-62
2023/02/05 08:10:14;;;;;;;16.30;8.77;;;;;;;;;;4996039;28;20449;-61
2023/02/05 08:12:39;;;;;;;16.88;9.80;;;;;;;;;;5001735;28;20035;-61
2023/02/05 08:15:04;;;;;;;17.23;9.60;;;;;;;;;;4995803;28;20073;-61
2023/02/05 08:17:30;;;;;;;16.73;10.40;;;;;;;;;;4999998;28;20022;-61
2023/02/05 08:19:55;;;;;;;15.15;10.18;;;;;;;;;;5003880;28;20041;-61
2023/02/05 08:22:20;;;;;;;19.52;11.02;;;;;;;;;;4995115;28;20541;-61
2023/02/05 08:24:46;;;;;;;19.75;11.07;;;;;;;;;;5008310;28;20242;-61
2023/02/05 08:27:11;;;;;;;20.40;11.55;;;;;;;;;;5000780;28;20104;-61
2023/02/05 08:29:36;;;;;;;22.00;12.02;;;;;;;;;;4996692;28;20053;-61
2023/02/05 08:32:02;;;;;;;22.88;13.05;;;;;;;;;;5006193;28;20120;-62
2023/02/05 08:34:27;;;;;;;17.38;10.52;;;;;;;;;;4995295;28;20382;-62
2023/02/05 08:36:52;;;;;;;20.48;12.13;;;;;;;;;;5003479;28;20057;-61
2023/02/05 08:39:18;;;;;;;25.73;13.52;;;;;;;;;;4993812;28;20036;-62
2023/02/05 08:41:43;;;;;;;25.33;13.88;;;;;;;;;;4999474;28;20048;-61
2023/02/05 08:44:08;;;;;;;25.00;12.93;;;;;;;;;;5000215;28;20034;-63
2023/02/05 08:46:34;;;;;;;19.05;11.32;;;;;;;;;;4997017;28;20421;-62
2023/02/05 08:48:59;;;;;;;18.25;10.43;;;;;;;;;;5008738;28;20045;-62
2023/02/05 08:51:25;;;;;;;24.20;12.25;;;;;;;;;;4999098;28;20770;-61
2023/02/05 08:53:50;;;;;;;22.58;15.35;;;;;;;;;;5000358;28;20069;-61
2023/02/05 08:56:16;;;;;;;26.15;15.63;;;;;;;;;;5005635;28;20433;-62
2023/02/05 08:58:42;;;;;;;26.42;16.38;;;;;;;;;;4993329;28;20117;-62
2023/02/05 09:01:09;;;;;;;67.68;24.65;;;;;;;;;;5006950;28;20075;-62
2023/02/05 09:03:34;;;;;;;;;;;;;;;;;;4997804;28;20044;-61
2023/02/05 09:06:00;;;;;;;204.57;55.97;;;;;;;;;;5000403;28;19913;-62
2023/02/05 09:08:26;;;;;;;142.13;44.53;;;;;;;;;;5003070;28;20030;-61
2023/02/05 09:10:51;;;;;;;49.55;22.10;;;;;;;;;;4996969;28;20044;-61
2023/02/05 09:13:17;;;;;;;31.80;16.98;;;;;;;;;;5001721;28;20492;-61
2023/02/05 09:15:43;;;;;;;28.50;15.65;;;;;;;;;;4999091;28;20027;-61
2023/02/05 09:18:08;;;;;;;24.88;14.50;;;;;;;;;;4995586;28;20475;-61
2023/02/05 09:20:33;;;;;;;29.42;13.98;;;;;;;;;;5002862;28;20037;-62
2023/02/05 09:22:59;;;;;;;27.23;14.15;;;;;;;;;;4999561;28;20471;-61
2023/02/05 09:25:24;;;;;;;24.60;13.07;;;;;;;;;;5007362;28;20041;-61
2023/02/05 09:27:50;;;;;;;21.00;12.90;;;;;;;;;;4998406;28;20018;-61
2023/02/05 09:30:15;;;;;;;24.60;14.15;;;;;;;;;;4996309;28;20059;-61
2023/02/05 09:32:40;;;;;;;21.35;12.07;;;;;;;;;;5002765;28;20483;-61
2023/02/05 09:35:06;;;;;;;19.58;11.10;;;;;;;;;;4993079;28;20026;-61
2023/02/05 09:37:31;;;;;;;20.20;10.23;;;;;;;;;;5003150;28;20034;-61
2023/02/05 09:39:56;;;;;;;17.90;10.02;;;;;;;;;;5000490;28;20034;-61
2023/02/05 09:42:21;;;;;;;15.25;9.90;;;;;;;;;;4997545;28;20457;-60
2023/02/05 09:44:56;;;;;;;18.67;10.70;;;;;;;;;;5009691;28;20045;-63
2023/02/05 09:47:24;;;;;;;17.60;11.32;;;;;;;;;;4991808;28;20510;-61
2023/02/05 09:50:13;;;;;;;20.50;11.15;;;;;;;;;;5002476;28;20088;-62
2023/02/05 09:52:41;;;;;;;21.77;11.30;;;;;;;;;;4999398;28;20133;-61
2023/02/05 09:55:06;;;;;;;;;;;;;;;;;;4998813;28;20025;-60
2023/02/05 09:57:37;;;;;;;22.20;12.27;;;;;;;;;;5005744;28;19923;-61
2023/02/05 10:00:20;;;;;;;22.15;13.35;;;;;;;;;;4993560;28;20033;-60
2023/02/05 10:02:48;;;;;;;24.58;15.20;;;;;;;;;;4992908;28;20061;-60
2023/02/05 10:05:14;;;;;;;27.02;15.80;;;;;;;;;;5000020;28;20049;-62
2023/02/05 10:07:46;;;;;;;28.77;16.58;;;;;;;;;;4992694;28;20029;-60
2023/02/05 10:10:23;;;;;;;33.50;16.35;;;;;;;;;;4994826;28;20120;-60
2023/02/05 10:13:04;;;;;;;22.90;15.20;;;;;;;;;;4998097;28;20044;-60
2023/02/05 10:15:41;;;;;;;21.95;14.07;;;;;;;;;;4989751;28;20039;-60
2023/02/05 10:18:06;;;;;;;;;;;;;;;;;;4994722;28;20030;-60
2023/02/05 10:20:45;;;;;;;21.20;13.23;;;;;;;;;;4996215;28;19920;-60
2023/02/05 10:23:24;;;;;;;25.02;12.70;;;;;;;;;;4991655;28;20831;-62
2023/02/05 10:26:08;;;;;;;24.27;14.43;;;;;;;;;;4996603;28;20124;-60
2023/02/05 10:28:46;;;;;;;26.45;16.60;;;;;;;;;;4991752;28;20034;-60
2023/02/05 10:31:30;;;;;;;27.88;16.13;;;;;;;;;;4991443;28;20021;-61
2023/02/05 10:34:00;;;;;;;29.42;16.15;;;;;;;;;;5003371;28;20033;-61
2023/02/05 10:36:26;;;;;;;28.02;16.30;;;;;;;;;;4996465;28;20056;-61
2023/02/05 10:38:53;;;;;;;25.38;15.00;;;;;;;;;;4996021;28;20379;-60
2023/02/05 10:41:30;;;;;;;24.58;15.80;;;;;;;;;;5000561;28;20044;-60
2023/02/05 10:44:03;;;;;;;30.40;16.70;;;;;;;;;;4996660;28;20033;-61
2023/02/05 10:46:31;;;;;;;27.67;15.55;;;;;;;;;;4998129;28;20663;-60
2023/02/05 10:49:17;;;;;;;27.13;14.80;;;;;;;;;;4997465;28;20042;-60
2023/02/05 10:51:44;;;;;;;28.05;14.95;;;;;;;;;;4993902;28;20065;-61
2023/02/05 10:54:29;;;;;;;24.63;14.40;;;;;;;;;;5004535;28;20060;-61
2023/02/05 10:56:57;;;;;;;25.63;13.70;;;;;;;;;;4999993;28;20058;-61
2023/02/05 10:59:28;;;;;;;26.88;12.93;;;;;;;;;;4994321;28;20019;-61
2023/02/05 11:01:55;;;;;;;22.70;13.05;;;;;;;;;;5001200;28;20038;-61
2023/02/05 11:04:43;;;;;;;19.65;11.70;;;;;;;;;;4996705;28;20022;-61
2023/02/05 11:07:12;;;;;;;27.58;12.00;;;;;;;;;;4973002;28;20184;-60
2023/02/05 11:09:38;;;;;;;30.00;11.63;;;;;;;;;;5001255;28;20065;-60
2023/02/05 11:12:19;;;;;;;29.23;9.48;;;;;;;;;;4996658;28;20108;-61
2023/02/05 11:14:45;;;;;;;18.33;9.98;;;;;;;;;;4999422;28;20380;-60
2023/02/05 11:17:13;;;;;;;21.27;10.27;;;;;;;;;;5006350;28;20036;-60
2023/02/05 11:19:39;;;;;;;25.33;11.68;;;;;;;;;;4996406;28;20029;-61
2023/02/05 11:22:04;;;;;;;24.17;11.45;;;;;;;;;;5007211;28;20030;-61
2023/02/05 11:24:35;;;;;;;18.65;9.57;;;;;;;;;;5001960;28;20036;-60
2023/02/05 11:27:09;;;;;;;19.92;9.80;;;;;;;;;;5001233;28;20026;-61
2023/02/05 11:29:34;;;;;;;23.58;10.48;;;;;;;;;;5010320;28;20038;-60
2023/02/05 11:31:59;;;;;;;19.10;10.05;;;;;;;;;;4995981;28;20122;-61
2023/02/05 11:34:25;;;;;;;19.27;10.07;;;;;;;;;;4999270;28;20091;-60
2023/02/05 11:36:54;;;;;;;16.67;10.23;;;;;;;;;;4996358;28;20038;-60
2023/02/05 11:39:28;;;;;;;21.92;10.65;;;;;;;;;;4997587;28;20108;-60
2023/02/05 11:41:55;;;;;;;26.10;11.60;;;;;;;;;;5004906;28;20029;-61
2023/02/05 11:44:20;;;;;;;20.23;10.65;;;;;;;;;;4996105;28;20037;-61
2023/02/05 11:46:46;;;;;;;23.88;11.68;;;;;;;;;;5009130;28;20038;-61
2023/02/05 11:49:21;;;;;;;21.10;10.68;;;;;;;;;;4997700;28;20506;-60
2023/02/05 11:51:48;;;;;;;20.85;10.85;;;;;;;;;;4997514;28;20772;-61
2023/02/05 11:54:17;;;;;;;21.42;10.05;;;;;;;;;;4992894;28;68407;-61
2023/02/05 11:56:42;;;;;;;22.20;10.80;;;;;;;;;;4998764;28;20034;-61
2023/02/05 11:59:19;;;;;;;20.85;11.80;;;;;;;;;;4996905;28;20513;-61
2023/02/05 12:01:44;;;;;;;22.88;11.45;;;;;;;;;;5003579;28;20029;-61
2023/02/05 12:04:10;;;;;;;20.90;10.57;;;;;;;;;;4995267;28;20031;-60
2023/02/05 12:06:44;;;;;;;21.52;11.32;;;;;;;;;;5005445;28;20053;-60
2023/02/05 12:09:18;;;;;;;19.05;10.20;;;;;;;;;;4995264;28;20109;-61
2023/02/05 12:12:02;;;;;;;21.70;11.60;;;;;;;;;;5000051;28;20026;-61
2023/02/05 12:14:31;;;;;;;18.15;10.32;;;;;;;;;;5008662;28;20397;-60
2023/02/05 12:17:03;;;;;;;17.25;10.30;;;;;;;;;;5003453;28;20037;-60
2023/02/05 12:19:47;;;;;;;17.02;10.23;;;;;;;;;;4994384;28;20026;-60
2023/02/05 12:22:19;;;;;;;20.90;10.95;;;;;;;;;;5003648;28;20040;-62
2023/02/05 12:24:53;;;;;;;20.30;11.20;;;;;;;;;;4998990;28;20030;-60
2023/02/05 12:27:25;;;;;;;25.95;12.75;;;;;;;;;;4995938;28;20041;-60
2023/02/05 12:30:11;;;;;;;28.35;11.55;;;;;;;;;;5005667;28;20044;-60
2023/02/05 12:33:09;;;;;;;28.35;11.50;;;;;;;;;;4987439;28;20088;-60
2023/02/05 12:35:40;;;;;;;24.13;11.32;;;;;;;;;;4964261;28;20154;-61
2023/02/05 12:38:05;;;;;;;23.50;11.85;;;;;;;;;;5000472;28;20095;-61
2023/02/05 12:40:31;;;;;;;21.55;11.82;;;;;;;;;;4997393;28;20132;-60
2023/02/05 12:43:13;;;;;;;26.42;12.60;;;;;;;;;;5004163;28;20033;-60
2023/02/05 12:45:47;;;;;;;25.92;13.95;;;;;;;;;;4996618;28;20056;-60
2023/02/05 12:48:28;;;;;;;24.30;12.68;;;;;;;;;;4999120;28;20034;-60
2023/02/05 12:51:03;;;;;;;23.13;11.25;;;;;;;;;;5002491;28;20389;-61
2023/02/05 12:53:28;;;;;;;23.02;10.98;;;;;;;;;;4996791;28;20032;-60
2023/02/05 12:56:12;;;;;;;23.08;12.05;;;;;;;;;;4999150;28;20034;-60
2023/02/05 12:58:40;;;;;;;20.27;11.30;;;;;;;;;;5009543;28;20100;-60
2023/02/05 13:01:07;;;;;;;22.77;10.88;;;;;;;;;;5000867;28;20022;-60
2023/02/05 13:03:32;;;;;;;;;;;;;;;;;;4994929;28;20030;-60
2023/02/05 13:06:04;;;;;;;18.57;10.33;;;;;;;;;;5006254;28;19924;-61
2023/02/05 13:08:37;;;;;;;15.30;9.50;;;;;;;;;;4999364;28;20087;-61
2023/02/05 13:11:02;;;;;;;22.10;10.70;;;;;;;;;;5001631;28;20030;-60
2023/02/05 13:13:31;;;;;;;21.05;12.80;;;;;;;;;;4994167;28;20022;-60
2023/02/05 13:16:00;;;;;;;17.38;10.90;;;;;;;;;;4994678;28;20573;-58
2023/02/05 13:18:30;;;;;;;19.10;12.73;;;;;;;;;;5006770;28;20030;-58
2023/02/05 13:29:18;;;;;;;20.83;11.52;;;;;;;;;;4995508;28;20030;-59
2023/02/05 13:31:49;;;;;;;18.25;11.25;;;;;;;;;;4994918;28;20041;-60
2023/02/05 13:34:15;;;;;;;17.33;12.15;;;;;;;;;;5006334;28;20037;-58
2023/02/05 13:36:44;;;;;;;15.57;9.10;;;;;;;;;;4996253;28;20038;-58
2023/02/05 13:39:27;;;;;;;14.88;9.98;;;;;;;;;;5001619;28;20384;-58
2023/02/05 13:41:55;;;;;;;19.80;10.82;;;;;;;;;;4996382;28;20056;-58
2023/02/05 13:44:39;;;;;;;15.52;10.18;;;;;;;;;;4998809;28;20032;-58
2023/02/05 13:47:07;;;;;;;16.05;10.45;;;;;;;;;;4998078;28;20030;-58
2023/02/05 13:49:49;;;;;;;19.05;11.88;;;;;;;;;;4995056;28;20045;-58
2023/02/05 13:52:31;;;;;;;16.17;11.10;;;;;;;;;;4995381;28;20490;-59
2023/02/05 13:54:57;;;;;;;16.52;10.75;;;;;;;;;;4998284;28;20433;-59
2023/02/05 13:57:52;;;;;;;15.95;10.68;;;;;;;;;;4995514;28;20080;-61
2023/02/05 14:00:18;;;;;;;16.55;10.18;;;;;;;;;;4989248;28;20072;-61
2023/02/05 14:02:48;;;;;;;18.20;9.95;;;;;;;;;;5002367;28;20474;-59
2023/02/05 14:05:14;;;;;;;15.90;10.52;;;;;;;;;;4987343;28;20420;-59
2023/02/05 14:07:44;;;;;;;12.98;8.90;;;;;;;;;;4999339;28;20080;-60
2023/02/05 14:10:30;;;;;;;13.80;8.27;;;;;;;;;;4985464;28;20038;-60
2023/02/05 14:13:14;;;;;;;11.57;7.57;;;;;;;;;;4997399;28;20661;-58
2023/02/05 14:15:41;;;;;;;14.88;7.65;;;;;;;;;;4991360;28;20041;-60
2023/02/05 14:18:08;;;;;;;12.50;7.72;;;;;;;;;;4994310;28;20040;-59
2023/02/05 14:20:38;;;;;;;10.20;7.20;;;;;;;;;;5012151;28;20557;-59
2023/02/05 14:23:24;;;;;;;12.98;8.27;;;;;;;;;;5005046;28;20565;-58
2023/02/05 14:26:01;;;;;;;15.57;9.75;;;;;;;;;;4975390;28;20044;-59
2023/02/05 14:28:27;;;;;;;19.83;11.07;;;;;;;;;;4997419;28;20033;-59
2023/02/05 14:30:57;;;;;;;15.45;9.63;;;;;;;;;;4999438;28;20030;-58
2023/02/05 14:33:27;;;;;;;19.70;11.48;;;;;;;;;;4996299;28;20029;-59
2023/02/05 14:35:56;;;;;;;22.70;12.35;;;;;;;;;;5001196;28;20105;-59
2023/02/05 14:38:30;;;;;;;18.88;11.38;;;;;;;;;;4996031;28;20034;-58
2023/02/05 14:41:06;;;;;;;23.67;13.20;;;;;;;;;;5004698;28;20025;-59
2023/02/05 14:43:36;;;;;;;15.65;11.13;;;;;;;;;;5007123;28;20030;-59
2023/02/05 14:46:04;;;;;;;20.23;12.05;;;;;;;;;;5001316;28;20037;-59